sensor_id;sensor_type;location;lat;lon;timestamp;P1;durP1;ratioP1;P2;durP2;ratioP2
8327;SDS011;4201;48.754;8.864;2022-09-09T00:00:42;5.90;;;2.20;;
8327;SDS011;4201;48.754;8.864;2022-09-09T00:03:12;4.10;;;2.10;;
8327;SDS011;4201;48.754;8.864;2022-09-09T00:05:41;12.40;;;2.87;;
8327;SDS011;4201;48.754;8.864;2022-09-09T00:08:11;6.30;;;2.27;;
8327;SDS011;4201;48.754;8.864;2022-09-09T00:10:43;4.80;;;2.13;;
8327;SDS011;4201;48.754;8.864;2022-09-09T00:13:13;5.70;;;2.07;;
8327;SDS011;4201;48.754;8.864;2022-09-09T00:15:46;5.20;;;2.90;;
8327;SDS011;4201;48.754;8.864;2022-09-09T00:18:21;9.43;;;2.50;;
8327;SDS011;4201;48.754;8.864;2022-09-09T00:20:50;8.30;;;2.50;;
8327;SDS011;4201;48.754;8.864;2022-09-09T00:23:20;8.53;;;2.43;;
8327;SDS011;4201;48.754;8.864;2022-09-09T00:25:53;4.80;;;1.90;;
8327;SDS011;4201;48.754;8.864;2022-09-09T00:28:22;7.00;;;2.43;;
8327;SDS011;4201;48.754;8.864;2022-09-09T00:30:50;4.80;;;2.03;;
8327;SDS011;4201;48.754;8.864;2022-09-09T00:33:17;6.53;;;2.33;;
8327;SDS011;4201;48.754;8.864;2022-09-09T00:35:48;4.73;;;2.20;;
8327;SDS011;4201;48.754;8.864;2022-09-09T00:38:15;8.80;;;2.93;;
8327;SDS011;4201;48.754;8.864;2022-09-09T00:40:45;6.80;;;2.40;;
8327;SDS011;4201;48.754;8.864;2022-09-09T00:43:32;4.30;;;1.87;;
8327;SDS011;4201;48.754;8.864;2022-09-09T00:46:03;6.70;;;2.33;;
8327;SDS011;4201;48.754;8.864;2022-09-09T00:48:33;5.10;;;1.73;;
8327;SDS011;4201;48.754;8.864;2022-09-09T00:51:02;3.70;;;2.00;;
8327;SDS011;4201;48.754;8.864;2022-09-09T00:53:33;4.90;;;1.80;;
8327;SDS011;4201;48.754;8.864;2022-09-09T00:56:04;6.47;;;2.13;;
8327;SDS011;4201;48.754;8.864;2022-09-09T00:58:33;7.53;;;1.90;;
8327;SDS011;4201;48.754;8.864;2022-09-09T01:01:02;4.90;;;1.60;;
8327;SDS011;4201;48.754;8.864;2022-09-09T01:03:33;8.17;;;2.97;;
8327;SDS011;4201;48.754;8.864;2022-09-09T01:06:12;7.13;;;2.10;;
8327;SDS011;4201;48.754;8.864;2022-09-09T01:08:50;14.23;;;2.40;;
8327;SDS011;4201;48.754;8.864;2022-09-09T01:11:20;5.57;;;1.80;;
8327;SDS011;4201;48.754;8.864;2022-09-09T01:13:47;6.10;;;2.43;;
8327;SDS011;4201;48.754;8.864;2022-09-09T01:16:16;4.70;;;1.97;;
8327;SDS011;4201;48.754;8.864;2022-09-09T01:18:44;7.90;;;1.80;;
8327;SDS011;4201;48.754;8.864;2022-09-09T01:21:13;9.77;;;2.00;;
8327;SDS011;4201;48.754;8.864;2022-09-09T01:23:50;8.77;;;2.93;;
8327;SDS011;4201;48.754;8.864;2022-09-09T01:26:24;5.30;;;2.50;;
8327;SDS011;4201;48.754;8.864;2022-09-09T01:28:52;4.67;;;1.97;;
8327;SDS011;4201;48.754;8.864;2022-09-09T01:31:19;9.27;;;2.50;;
8327;SDS011;4201;48.754;8.864;2022-09-09T01:33:46;4.80;;;2.30;;
8327;SDS011;4201;48.754;8.864;2022-09-09T01:36:13;7.97;;;2.03;;
8327;SDS011;4201;48.754;8.864;2022-09-09T01:38:41;6.80;;;2.10;;
8327;SDS011;4201;48.754;8.864;2022-09-09T01:41:07;9.67;;;2.20;;
8327;SDS011;4201;48.754;8.864;2022-09-09T01:43:35;5.23;;;2.20;;
8327;SDS011;4201;48.754;8.864;2022-09-09T01:46:01;11.57;;;2.97;;
8327;SDS011;4201;48.754;8.864;2022-09-09T01:48:28;8.07;;;2.03;;
8327;SDS011;4201;48.754;8.864;2022-09-09T01:50:54;7.70;;;1.80;;
8327;SDS011;4201;48.754;8.864;2022-09-09T01:53:21;3.27;;;1.90;;
8327;SDS011;4201;48.754;8.864;2022-09-09T01:55:48;7.87;;;2.77;;
8327;SDS011;4201;48.754;8.864;2022-09-09T01:58:24;5.83;;;1.83;;
8327;SDS011;4201;48.754;8.864;2022-09-09T02:00:54;7.93;;;2.00;;
8327;SDS011;4201;48.754;8.864;2022-09-09T02:03:23;4.63;;;1.87;;
8327;SDS011;4201;48.754;8.864;2022-09-09T02:05:52;6.90;;;1.80;;
8327;SDS011;4201;48.754;8.864;2022-09-09T02:08:23;3.00;;;1.27;;
8327;SDS011;4201;48.754;8.864;2022-09-09T02:10:53;5.97;;;1.87;;
8327;SDS011;4201;48.754;8.864;2022-09-09T02:13:21;6.17;;;1.90;;
8327;SDS011;4201;48.754;8.864;2022-09-09T02:15:49;4.73;;;1.40;;
8327;SDS011;4201;48.754;8.864;2022-09-09T02:18:19;6.20;;;1.90;;
8327;SDS011;4201;48.754;8.864;2022-09-09T02:20:47;5.07;;;1.40;;
8327;SDS011;4201;48.754;8.864;2022-09-09T02:23:13;4.10;;;1.20;;
8327;SDS011;4201;48.754;8.864;2022-09-09T02:25:41;4.43;;;1.37;;
8327;SDS011;4201;48.754;8.864;2022-09-09T02:28:08;3.27;;;1.50;;
8327;SDS011;4201;48.754;8.864;2022-09-09T02:30:35;5.00;;;1.30;;
8327;SDS011;4201;48.754;8.864;2022-09-09T02:33:03;3.83;;;1.60;;
8327;SDS011;4201;48.754;8.864;2022-09-09T02:35:32;3.90;;;1.57;;
8327;SDS011;4201;48.754;8.864;2022-09-09T02:38:02;5.30;;;1.50;;
8327;SDS011;4201;48.754;8.864;2022-09-09T02:40:29;2.90;;;1.20;;
8327;SDS011;4201;48.754;8.864;2022-09-09T02:42:55;6.87;;;1.20;;
8327;SDS011;4201;48.754;8.864;2022-09-09T02:45:23;6.00;;;1.83;;
8327;SDS011;4201;48.754;8.864;2022-09-09T02:47:51;5.60;;;1.37;;
8327;SDS011;4201;48.754;8.864;2022-09-09T02:50:22;3.00;;;1.40;;
8327;SDS011;4201;48.754;8.864;2022-09-09T02:52:54;3.13;;;1.23;;
8327;SDS011;4201;48.754;8.864;2022-09-09T02:55:38;5.00;;;1.73;;
8327;SDS011;4201;48.754;8.864;2022-09-09T02:58:06;4.27;;;1.60;;
8327;SDS011;4201;48.754;8.864;2022-09-09T03:00:34;2.90;;;1.07;;
8327;SDS011;4201;48.754;8.864;2022-09-09T03:03:02;3.77;;;1.13;;
8327;SDS011;4201;48.754;8.864;2022-09-09T03:05:28;3.53;;;1.40;;
8327;SDS011;4201;48.754;8.864;2022-09-09T03:07:56;4.30;;;1.60;;
8327;SDS011;4201;48.754;8.864;2022-09-09T03:10:22;3.80;;;1.10;;
8327;SDS011;4201;48.754;8.864;2022-09-09T03:12:49;4.67;;;1.50;;
8327;SDS011;4201;48.754;8.864;2022-09-09T03:15:15;4.03;;;1.20;;
8327;SDS011;4201;48.754;8.864;2022-09-09T03:17:41;5.00;;;1.60;;
8327;SDS011;4201;48.754;8.864;2022-09-09T03:20:08;6.83;;;1.63;;
8327;SDS011;4201;48.754;8.864;2022-09-09T03:22:34;2.83;;;1.20;;
8327;SDS011;4201;48.754;8.864;2022-09-09T03:25:02;5.10;;;1.57;;
8327;SDS011;4201;48.754;8.864;2022-09-09T03:27:29;2.73;;;1.20;;
8327;SDS011;4201;48.754;8.864;2022-09-09T03:29:55;6.03;;;1.60;;
8327;SDS011;4201;48.754;8.864;2022-09-09T03:32:22;6.27;;;1.40;;
8327;SDS011;4201;48.754;8.864;2022-09-09T03:34:50;5.13;;;1.53;;
8327;SDS011;4201;48.754;8.864;2022-09-09T03:37:17;1.93;;;0.93;;
8327;SDS011;4201;48.754;8.864;2022-09-09T03:39:43;5.93;;;1.60;;
8327;SDS011;4201;48.754;8.864;2022-09-09T03:42:13;4.83;;;1.60;;
8327;SDS011;4201;48.754;8.864;2022-09-09T03:44:43;6.03;;;1.80;;
8327;SDS011;4201;48.754;8.864;2022-09-09T03:47:12;3.30;;;1.40;;
8327;SDS011;4201;48.754;8.864;2022-09-09T03:49:39;4.00;;;1.40;;
8327;SDS011;4201;48.754;8.864;2022-09-09T03:52:05;3.80;;;1.30;;
8327;SDS011;4201;48.754;8.864;2022-09-09T03:54:31;6.70;;;1.73;;
8327;SDS011;4201;48.754;8.864;2022-09-09T03:56:57;3.50;;;1.73;;
8327;SDS011;4201;48.754;8.864;2022-09-09T03:59:25;5.17;;;1.43;;
8327;SDS011;4201;48.754;8.864;2022-09-09T04:01:52;4.43;;;1.63;;
8327;SDS011;4201;48.754;8.864;2022-09-09T04:04:18;4.00;;;1.97;;
8327;SDS011;4201;48.754;8.864;2022-09-09T04:06:45;3.27;;;1.30;;
8327;SDS011;4201;48.754;8.864;2022-09-09T04:09:11;9.00;;;1.40;;
8327;SDS011;4201;48.754;8.864;2022-09-09T04:11:38;6.13;;;1.53;;
8327;SDS011;4201;48.754;8.864;2022-09-09T04:14:04;3.43;;;1.50;;
8327;SDS011;4201;48.754;8.864;2022-09-09T04:16:32;4.37;;;1.20;;
8327;SDS011;4201;48.754;8.864;2022-09-09T04:18:59;3.90;;;1.50;;
8327;SDS011;4201;48.754;8.864;2022-09-09T04:21:26;4.20;;;1.50;;
8327;SDS011;4201;48.754;8.864;2022-09-09T04:23:52;5.83;;;1.80;;
8327;SDS011;4201;48.754;8.864;2022-09-09T04:26:18;3.80;;;1.30;;
8327;SDS011;4201;48.754;8.864;2022-09-09T04:28:45;2.50;;;1.17;;
8327;SDS011;4201;48.754;8.864;2022-09-09T04:31:14;4.67;;;1.77;;
8327;SDS011;4201;48.754;8.864;2022-09-09T04:33:43;3.40;;;1.50;;
8327;SDS011;4201;48.754;8.864;2022-09-09T04:36:09;4.73;;;1.80;;
8327;SDS011;4201;48.754;8.864;2022-09-09T04:38:36;7.13;;;1.63;;
8327;SDS011;4201;48.754;8.864;2022-09-09T04:41:02;3.23;;;1.70;;
8327;SDS011;4201;48.754;8.864;2022-09-09T04:43:28;4.20;;;1.50;;
8327;SDS011;4201;48.754;8.864;2022-09-09T04:45:55;7.00;;;1.80;;
8327;SDS011;4201;48.754;8.864;2022-09-09T04:48:22;7.17;;;2.03;;
8327;SDS011;4201;48.754;8.864;2022-09-09T04:50:57;4.93;;;3.10;;
8327;SDS011;4201;48.754;8.864;2022-09-09T04:53:24;4.10;;;1.60;;
8327;SDS011;4201;48.754;8.864;2022-09-09T04:55:50;4.53;;;1.80;;
8327;SDS011;4201;48.754;8.864;2022-09-09T04:58:16;5.97;;;1.50;;
8327;SDS011;4201;48.754;8.864;2022-09-09T05:00:43;3.60;;;2.00;;
8327;SDS011;4201;48.754;8.864;2022-09-09T05:03:09;3.20;;;1.40;;
8327;SDS011;4201;48.754;8.864;2022-09-09T05:05:35;4.83;;;2.00;;
8327;SDS011;4201;48.754;8.864;2022-09-09T05:08:03;7.43;;;2.53;;
8327;SDS011;4201;48.754;8.864;2022-09-09T05:10:30;4.93;;;1.60;;
8327;SDS011;4201;48.754;8.864;2022-09-09T05:12:57;8.43;;;2.00;;
8327;SDS011;4201;48.754;8.864;2022-09-09T05:15:23;4.20;;;2.17;;
8327;SDS011;4201;48.754;8.864;2022-09-09T05:17:49;5.80;;;2.50;;
8327;SDS011;4201;48.754;8.864;2022-09-09T05:20:17;7.13;;;2.00;;
8327;SDS011;4201;48.754;8.864;2022-09-09T05:22:43;5.83;;;2.30;;
8327;SDS011;4201;48.754;8.864;2022-09-09T05:25:14;5.80;;;2.20;;
8327;SDS011;4201;48.754;8.864;2022-09-09T05:27:40;5.97;;;2.10;;
8327;SDS011;4201;48.754;8.864;2022-09-09T05:30:07;4.37;;;1.63;;
8327;SDS011;4201;48.754;8.864;2022-09-09T05:32:33;4.40;;;1.60;;
8327;SDS011;4201;48.754;8.864;2022-09-09T05:35:00;8.27;;;2.30;;
8327;SDS011;4201;48.754;8.864;2022-09-09T05:37:26;3.37;;;1.90;;
8327;SDS011;4201;48.754;8.864;2022-09-09T05:39:53;4.00;;;1.60;;
8327;SDS011;4201;48.754;8.864;2022-09-09T05:42:20;6.83;;;1.90;;
8327;SDS011;4201;48.754;8.864;2022-09-09T05:44:46;6.47;;;2.17;;
8327;SDS011;4201;48.754;8.864;2022-09-09T05:47:13;9.50;;;1.90;;
8327;SDS011;4201;48.754;8.864;2022-09-09T05:49:40;3.33;;;1.60;;
8327;SDS011;4201;48.754;8.864;2022-09-09T05:52:06;3.40;;;1.63;;
8327;SDS011;4201;48.754;8.864;2022-09-09T05:54:32;3.50;;;1.90;;
8327;SDS011;4201;48.754;8.864;2022-09-09T05:56:58;6.13;;;2.47;;
8327;SDS011;4201;48.754;8.864;2022-09-09T05:59:26;6.30;;;1.90;;
8327;SDS011;4201;48.754;8.864;2022-09-09T06:01:53;3.77;;;2.13;;
8327;SDS011;4201;48.754;8.864;2022-09-09T06:04:19;2.67;;;1.47;;
8327;SDS011;4201;48.754;8.864;2022-09-09T06:06:49;4.57;;;1.90;;
8327;SDS011;4201;48.754;8.864;2022-09-09T06:09:16;3.47;;;1.70;;
8327;SDS011;4201;48.754;8.864;2022-09-09T06:11:42;4.70;;;2.10;;
8327;SDS011;4201;48.754;8.864;2022-09-09T06:14:08;4.77;;;2.23;;
8327;SDS011;4201;48.754;8.864;2022-09-09T06:16:36;5.97;;;2.20;;
8327;SDS011;4201;48.754;8.864;2022-09-09T06:19:03;4.10;;;2.20;;
8327;SDS011;4201;48.754;8.864;2022-09-09T06:21:30;3.83;;;1.80;;
8327;SDS011;4201;48.754;8.864;2022-09-09T06:23:57;3.57;;;1.80;;
8327;SDS011;4201;48.754;8.864;2022-09-09T06:26:24;3.70;;;1.73;;
8327;SDS011;4201;48.754;8.864;2022-09-09T06:28:51;5.27;;;2.30;;
8327;SDS011;4201;48.754;8.864;2022-09-09T06:31:19;8.83;;;2.40;;
8327;SDS011;4201;48.754;8.864;2022-09-09T06:33:48;5.60;;;2.20;;
8327;SDS011;4201;48.754;8.864;2022-09-09T06:36:15;4.17;;;2.30;;
8327;SDS011;4201;48.754;8.864;2022-09-09T06:38:42;4.47;;;1.70;;
8327;SDS011;4201;48.754;8.864;2022-09-09T06:41:08;6.37;;;2.60;;
8327;SDS011;4201;48.754;8.864;2022-09-09T06:43:35;9.20;;;2.17;;
8327;SDS011;4201;48.754;8.864;2022-09-09T06:46:05;4.53;;;2.07;;
8327;SDS011;4201;48.754;8.864;2022-09-09T06:48:33;6.30;;;2.10;;
8327;SDS011;4201;48.754;8.864;2022-09-09T06:51:01;4.37;;;1.90;;
8327;SDS011;4201;48.754;8.864;2022-09-09T06:53:27;4.83;;;2.10;;
8327;SDS011;4201;48.754;8.864;2022-09-09T06:55:54;4.37;;;1.90;;
8327;SDS011;4201;48.754;8.864;2022-09-09T06:58:20;4.87;;;1.93;;
8327;SDS011;4201;48.754;8.864;2022-09-09T07:00:47;4.37;;;1.50;;
8327;SDS011;4201;48.754;8.864;2022-09-09T07:03:13;3.80;;;2.00;;
8327;SDS011;4201;48.754;8.864;2022-09-09T07:05:39;4.73;;;1.80;;
8327;SDS011;4201;48.754;8.864;2022-09-09T07:08:07;7.83;;;2.47;;
8327;SDS011;4201;48.754;8.864;2022-09-09T07:10:33;8.50;;;1.70;;
8327;SDS011;4201;48.754;8.864;2022-09-09T07:13:00;5.40;;;2.07;;
8327;SDS011;4201;48.754;8.864;2022-09-09T07:15:27;5.60;;;1.73;;
8327;SDS011;4201;48.754;8.864;2022-09-09T07:17:53;2.90;;;1.50;;
8327;SDS011;4201;48.754;8.864;2022-09-09T07:20:19;5.40;;;2.00;;
8327;SDS011;4201;48.754;8.864;2022-09-09T07:22:46;5.43;;;2.10;;
8327;SDS011;4201;48.754;8.864;2022-09-09T07:25:13;4.63;;;1.63;;
8327;SDS011;4201;48.754;8.864;2022-09-09T07:27:42;5.40;;;2.20;;
8327;SDS011;4201;48.754;8.864;2022-09-09T07:30:08;3.57;;;1.33;;
8327;SDS011;4201;48.754;8.864;2022-09-09T07:32:35;3.37;;;1.90;;
8327;SDS011;4201;48.754;8.864;2022-09-09T07:35:01;5.90;;;1.80;;
8327;SDS011;4201;48.754;8.864;2022-09-09T07:37:27;3.93;;;1.20;;
8327;SDS011;4201;48.754;8.864;2022-09-09T07:39:53;3.87;;;1.73;;
8327;SDS011;4201;48.754;8.864;2022-09-09T07:42:21;6.17;;;1.90;;
8327;SDS011;4201;48.754;8.864;2022-09-09T07:44:47;4.77;;;1.70;;
8327;SDS011;4201;48.754;8.864;2022-09-09T07:47:14;5.33;;;1.70;;
8327;SDS011;4201;48.754;8.864;2022-09-09T07:49:40;8.80;;;2.13;;
8327;SDS011;4201;48.754;8.864;2022-09-09T07:52:06;6.50;;;1.90;;
8327;SDS011;4201;48.754;8.864;2022-09-09T07:54:33;5.27;;;1.73;;
8327;SDS011;4201;48.754;8.864;2022-09-09T07:56:59;5.77;;;1.87;;
8327;SDS011;4201;48.754;8.864;2022-09-09T07:59:26;7.43;;;2.10;;
8327;SDS011;4201;48.754;8.864;2022-09-09T08:01:55;4.10;;;1.60;;
8327;SDS011;4201;48.754;8.864;2022-09-09T08:04:22;6.03;;;1.60;;
8327;SDS011;4201;48.754;8.864;2022-09-09T08:06:51;5.17;;;1.50;;
8327;SDS011;4201;48.754;8.864;2022-09-09T08:09:18;7.73;;;2.07;;
8327;SDS011;4201;48.754;8.864;2022-09-09T08:11:44;7.57;;;1.90;;
8327;SDS011;4201;48.754;8.864;2022-09-09T08:14:11;5.00;;;1.60;;
8327;SDS011;4201;48.754;8.864;2022-09-09T08:16:39;4.07;;;1.30;;
8327;SDS011;4201;48.754;8.864;2022-09-09T08:19:06;5.73;;;1.97;;
8327;SDS011;4201;48.754;8.864;2022-09-09T08:21:34;6.33;;;1.57;;
8327;SDS011;4201;48.754;8.864;2022-09-09T08:24:01;5.83;;;1.80;;
8327;SDS011;4201;48.754;8.864;2022-09-09T08:26:29;3.83;;;1.40;;
8327;SDS011;4201;48.754;8.864;2022-09-09T08:28:56;3.90;;;1.57;;
8327;SDS011;4201;48.754;8.864;2022-09-09T08:31:23;4.00;;;1.40;;
8327;SDS011;4201;48.754;8.864;2022-09-09T08:33:51;4.37;;;1.50;;
8327;SDS011;4201;48.754;8.864;2022-09-09T08:36:18;5.17;;;2.17;;
8327;SDS011;4201;48.754;8.864;2022-09-09T08:38:47;3.83;;;1.30;;
8327;SDS011;4201;48.754;8.864;2022-09-09T08:41:22;4.73;;;1.40;;
8327;SDS011;4201;48.754;8.864;2022-09-09T08:43:58;4.97;;;1.57;;
8327;SDS011;4201;48.754;8.864;2022-09-09T08:46:27;9.73;;;2.13;;
8327;SDS011;4201;48.754;8.864;2022-09-09T08:49:02;6.60;;;1.70;;
8327;SDS011;4201;48.754;8.864;2022-09-09T08:51:32;12.93;;;2.53;;
8327;SDS011;4201;48.754;8.864;2022-09-09T08:53:59;4.10;;;1.70;;
8327;SDS011;4201;48.754;8.864;2022-09-09T08:56:27;6.93;;;1.93;;
8327;SDS011;4201;48.754;8.864;2022-09-09T08:58:54;5.10;;;2.13;;
8327;SDS011;4201;48.754;8.864;2022-09-09T09:01:35;8.60;;;1.90;;
8327;SDS011;4201;48.754;8.864;2022-09-09T09:04:10;4.63;;;1.60;;
8327;SDS011;4201;48.754;8.864;2022-09-09T09:06:41;6.03;;;2.03;;
8327;SDS011;4201;48.754;8.864;2022-09-09T09:09:11;4.70;;;1.87;;
8327;SDS011;4201;48.754;8.864;2022-09-09T09:11:47;7.77;;;1.97;;
8327;SDS011;4201;48.754;8.864;2022-09-09T09:14:15;7.17;;;1.80;;
8327;SDS011;4201;48.754;8.864;2022-09-09T09:16:45;3.93;;;1.70;;
8327;SDS011;4201;48.754;8.864;2022-09-09T09:19:15;3.30;;;1.53;;
8327;SDS011;4201;48.754;8.864;2022-09-09T09:21:43;5.57;;;1.93;;
8327;SDS011;4201;48.754;8.864;2022-09-09T09:24:13;5.83;;;1.87;;
8327;SDS011;4201;48.754;8.864;2022-09-09T09:26:42;5.57;;;2.23;;
8327;SDS011;4201;48.754;8.864;2022-09-09T09:29:10;6.47;;;1.77;;
8327;SDS011;4201;48.754;8.864;2022-09-09T09:31:37;4.67;;;1.50;;
8327;SDS011;4201;48.754;8.864;2022-09-09T09:34:03;5.57;;;1.33;;
8327;SDS011;4201;48.754;8.864;2022-09-09T09:36:35;3.87;;;1.57;;
8327;SDS011;4201;48.754;8.864;2022-09-09T09:39:04;3.93;;;1.50;;
8327;SDS011;4201;48.754;8.864;2022-09-09T09:41:31;5.30;;;1.60;;
8327;SDS011;4201;48.754;8.864;2022-09-09T09:43:58;7.07;;;1.80;;
8327;SDS011;4201;48.754;8.864;2022-09-09T09:46:25;5.40;;;1.50;;
8327;SDS011;4201;48.754;8.864;2022-09-09T09:48:58;4.77;;;1.70;;
8327;SDS011;4201;48.754;8.864;2022-09-09T09:51:25;8.03;;;1.90;;
8327;SDS011;4201;48.754;8.864;2022-09-09T09:53:53;9.97;;;1.87;;
8327;SDS011;4201;48.754;8.864;2022-09-09T09:56:26;5.60;;;1.70;;
8327;SDS011;4201;48.754;8.864;2022-09-09T09:58:53;6.77;;;1.87;;
8327;SDS011;4201;48.754;8.864;2022-09-09T10:01:21;12.53;;;1.93;;
8327;SDS011;4201;48.754;8.864;2022-09-09T10:03:50;5.97;;;1.67;;
8327;SDS011;4201;48.754;8.864;2022-09-09T10:06:17;6.70;;;1.80;;
8327;SDS011;4201;48.754;8.864;2022-09-09T10:08:56;9.83;;;1.90;;
8327;SDS011;4201;48.754;8.864;2022-09-09T10:11:25;5.17;;;1.67;;
8327;SDS011;4201;48.754;8.864;2022-09-09T10:13:58;5.67;;;1.50;;
8327;SDS011;4201;48.754;8.864;2022-09-09T10:16:31;7.00;;;1.67;;
8327;SDS011;4201;48.754;8.864;2022-09-09T10:19:00;8.53;;;1.80;;
8327;SDS011;4201;48.754;8.864;2022-09-09T10:24:32;6.23;;;1.60;;
8327;SDS011;4201;48.754;8.864;2022-09-09T10:27:03;4.00;;;1.67;;
8327;SDS011;4201;48.754;8.864;2022-09-09T10:29:35;4.53;;;1.60;;
8327;SDS011;4201;48.754;8.864;2022-09-09T10:32:08;5.37;;;2.10;;
8327;SDS011;4201;48.754;8.864;2022-09-09T10:34:51;4.27;;;1.93;;
8327;SDS011;4201;48.754;8.864;2022-09-09T10:37:21;7.73;;;2.10;;
8327;SDS011;4201;48.754;8.864;2022-09-09T10:39:53;12.10;;;2.17;;
8327;SDS011;4201;48.754;8.864;2022-09-09T10:42:25;4.50;;;1.63;;
8327;SDS011;4201;48.754;8.864;2022-09-09T10:44:57;6.43;;;1.60;;
8327;SDS011;4201;48.754;8.864;2022-09-09T10:47:31;4.90;;;1.60;;
8327;SDS011;4201;48.754;8.864;2022-09-09T10:50:06;5.70;;;1.20;;
8327;SDS011;4201;48.754;8.864;2022-09-09T10:52:36;4.37;;;1.97;;
8327;SDS011;4201;48.754;8.864;2022-09-09T10:55:09;4.20;;;1.10;;
8327;SDS011;4201;48.754;8.864;2022-09-09T10:57:37;4.63;;;1.27;;
8327;SDS011;4201;48.754;8.864;2022-09-09T11:00:06;4.53;;;1.10;;
8327;SDS011;4201;48.754;8.864;2022-09-09T11:02:39;6.80;;;1.17;;
8327;SDS011;4201;48.754;8.864;2022-09-09T11:05:08;4.57;;;1.40;;
8327;SDS011;4201;48.754;8.864;2022-09-09T11:07:39;4.00;;;1.20;;
8327;SDS011;4201;48.754;8.864;2022-09-09T11:10:14;6.00;;;1.60;;
8327;SDS011;4201;48.754;8.864;2022-09-09T11:12:42;3.00;;;1.00;;
8327;SDS011;4201;48.754;8.864;2022-09-09T11:15:13;3.57;;;1.20;;
8327;SDS011;4201;48.754;8.864;2022-09-09T11:17:40;2.80;;;1.30;;
8327;SDS011;4201;48.754;8.864;2022-09-09T11:20:11;2.47;;;1.07;;
8327;SDS011;4201;48.754;8.864;2022-09-09T11:22:39;4.07;;;1.07;;
8327;SDS011;4201;48.754;8.864;2022-09-09T11:25:08;2.50;;;0.93;;
8327;SDS011;4201;48.754;8.864;2022-09-09T11:27:40;3.03;;;1.20;;
8327;SDS011;4201;48.754;8.864;2022-09-09T11:30:15;5.10;;;1.30;;
8327;SDS011;4201;48.754;8.864;2022-09-09T11:35:30;4.30;;;1.23;;
8327;SDS011;4201;48.754;8.864;2022-09-09T11:38:02;2.40;;;1.10;;
8327;SDS011;4201;48.754;8.864;2022-09-09T11:40:31;2.63;;;1.07;;
8327;SDS011;4201;48.754;8.864;2022-09-09T11:43:04;3.93;;;1.17;;
8327;SDS011;4201;48.754;8.864;2022-09-09T11:45:31;2.90;;;1.33;;
8327;SDS011;4201;48.754;8.864;2022-09-09T11:48:00;3.47;;;1.40;;
8327;SDS011;4201;48.754;8.864;2022-09-09T11:50:28;4.40;;;1.10;;
8327;SDS011;4201;48.754;8.864;2022-09-09T11:53:03;4.60;;;1.50;;
8327;SDS011;4201;48.754;8.864;2022-09-09T11:55:30;3.40;;;1.37;;
8327;SDS011;4201;48.754;8.864;2022-09-09T11:57:58;4.20;;;1.20;;
8327;SDS011;4201;48.754;8.864;2022-09-09T12:00:33;4.30;;;1.20;;
8327;SDS011;4201;48.754;8.864;2022-09-09T12:03:00;3.40;;;1.10;;
8327;SDS011;4201;48.754;8.864;2022-09-09T12:05:34;5.73;;;1.20;;
8327;SDS011;4201;48.754;8.864;2022-09-09T12:08:02;2.07;;;0.90;;
8327;SDS011;4201;48.754;8.864;2022-09-09T12:10:29;5.53;;;1.07;;
8327;SDS011;4201;48.754;8.864;2022-09-09T12:13:07;3.07;;;1.30;;
8327;SDS011;4201;48.754;8.864;2022-09-09T12:15:35;3.27;;;1.40;;
8327;SDS011;4201;48.754;8.864;2022-09-09T12:18:14;4.37;;;1.63;;
8327;SDS011;4201;48.754;8.864;2022-09-09T12:20:41;4.27;;;1.50;;
8327;SDS011;4201;48.754;8.864;2022-09-09T12:23:19;4.00;;;1.30;;
8327;SDS011;4201;48.754;8.864;2022-09-09T12:25:58;2.83;;;1.07;;
8327;SDS011;4201;48.754;8.864;2022-09-09T12:28:30;2.93;;;1.07;;
8327;SDS011;4201;48.754;8.864;2022-09-09T12:31:00;3.63;;;1.10;;
8327;SDS011;4201;48.754;8.864;2022-09-09T12:33:33;3.30;;;1.70;;
8327;SDS011;4201;48.754;8.864;2022-09-09T12:36:00;2.53;;;0.70;;
8327;SDS011;4201;48.754;8.864;2022-09-09T12:38:29;2.73;;;0.97;;
8327;SDS011;4201;48.754;8.864;2022-09-09T12:40:57;3.70;;;1.23;;
8327;SDS011;4201;48.754;8.864;2022-09-09T12:43:24;4.43;;;1.10;;
8327;SDS011;4201;48.754;8.864;2022-09-09T12:45:51;2.30;;;1.00;;
8327;SDS011;4201;48.754;8.864;2022-09-09T12:48:24;2.63;;;1.00;;
8327;SDS011;4201;48.754;8.864;2022-09-09T12:50:53;2.63;;;1.10;;
8327;SDS011;4201;48.754;8.864;2022-09-09T12:53:21;3.77;;;1.27;;
8327;SDS011;4201;48.754;8.864;2022-09-09T12:55:49;5.03;;;1.23;;
8327;SDS011;4201;48.754;8.864;2022-09-09T12:58:16;7.93;;;1.57;;
8327;SDS011;4201;48.754;8.864;2022-09-09T13:00:48;8.30;;;2.20;;
8327;SDS011;4201;48.754;8.864;2022-09-09T13:03:16;5.30;;;1.40;;
8327;SDS011;4201;48.754;8.864;2022-09-09T13:05:44;3.37;;;1.00;;
8327;SDS011;4201;48.754;8.864;2022-09-09T13:08:12;2.83;;;1.20;;
8327;SDS011;4201;48.754;8.864;2022-09-09T13:10:39;2.87;;;1.00;;
8327;SDS011;4201;48.754;8.864;2022-09-09T13:13:11;3.87;;;1.20;;
8327;SDS011;4201;48.754;8.864;2022-09-09T13:15:39;3.73;;;1.07;;
8327;SDS011;4201;48.754;8.864;2022-09-09T13:18:06;3.33;;;1.00;;
8327;SDS011;4201;48.754;8.864;2022-09-09T13:20:33;3.53;;;1.17;;
8327;SDS011;4201;48.754;8.864;2022-09-09T13:23:01;3.73;;;1.10;;
8327;SDS011;4201;48.754;8.864;2022-09-09T13:25:28;5.10;;;1.30;;
8327;SDS011;4201;48.754;8.864;2022-09-09T13:27:58;3.37;;;1.10;;
8327;SDS011;4201;48.754;8.864;2022-09-09T13:30:26;3.50;;;1.20;;
8327;SDS011;4201;48.754;8.864;2022-09-09T13:32:59;4.83;;;1.30;;
8327;SDS011;4201;48.754;8.864;2022-09-09T13:35:26;2.40;;;1.00;;
8327;SDS011;4201;48.754;8.864;2022-09-09T13:37:53;3.20;;;0.93;;
8327;SDS011;4201;48.754;8.864;2022-09-09T13:40:21;5.80;;;1.17;;
8327;SDS011;4201;48.754;8.864;2022-09-09T13:42:50;2.77;;;0.90;;
8327;SDS011;4201;48.754;8.864;2022-09-09T13:45:18;3.67;;;1.10;;
8327;SDS011;4201;48.754;8.864;2022-09-09T13:47:45;3.63;;;1.77;;
8327;SDS011;4201;48.754;8.864;2022-09-09T13:50:19;5.73;;;1.10;;
8327;SDS011;4201;48.754;8.864;2022-09-09T13:52:46;5.83;;;1.30;;
8327;SDS011;4201;48.754;8.864;2022-09-09T13:55:12;2.73;;;0.90;;
8327;SDS011;4201;48.754;8.864;2022-09-09T13:57:49;4.50;;;1.30;;
8327;SDS011;4201;48.754;8.864;2022-09-09T14:00:15;3.37;;;1.03;;
8327;SDS011;4201;48.754;8.864;2022-09-09T14:02:42;2.77;;;1.10;;
8327;SDS011;4201;48.754;8.864;2022-09-09T14:05:09;3.23;;;1.27;;
8327;SDS011;4201;48.754;8.864;2022-09-09T14:07:36;4.13;;;1.00;;
8327;SDS011;4201;48.754;8.864;2022-09-09T14:10:03;3.53;;;1.20;;
8327;SDS011;4201;48.754;8.864;2022-09-09T14:12:29;6.23;;;1.00;;
8327;SDS011;4201;48.754;8.864;2022-09-09T14:14:57;3.93;;;1.10;;
8327;SDS011;4201;48.754;8.864;2022-09-09T14:17:24;4.10;;;1.17;;
8327;SDS011;4201;48.754;8.864;2022-09-09T14:19:54;3.83;;;1.07;;
8327;SDS011;4201;48.754;8.864;2022-09-09T14:22:21;2.10;;;0.80;;
8327;SDS011;4201;48.754;8.864;2022-09-09T14:24:47;3.60;;;1.33;;
8327;SDS011;4201;48.754;8.864;2022-09-09T14:27:14;2.57;;;0.90;;
8327;SDS011;4201;48.754;8.864;2022-09-09T14:29:40;3.67;;;1.13;;
8327;SDS011;4201;48.754;8.864;2022-09-09T14:32:09;3.60;;;1.07;;
8327;SDS011;4201;48.754;8.864;2022-09-09T14:34:36;3.73;;;1.30;;
8327;SDS011;4201;48.754;8.864;2022-09-09T14:37:03;2.80;;;1.27;;
8327;SDS011;4201;48.754;8.864;2022-09-09T14:39:29;3.03;;;0.93;;
8327;SDS011;4201;48.754;8.864;2022-09-09T14:41:55;2.07;;;0.90;;
8327;SDS011;4201;48.754;8.864;2022-09-09T14:44:22;2.93;;;1.00;;
8327;SDS011;4201;48.754;8.864;2022-09-09T14:46:48;4.23;;;0.97;;
8327;SDS011;4201;48.754;8.864;2022-09-09T14:49:16;2.87;;;0.90;;
8327;SDS011;4201;48.754;8.864;2022-09-09T14:51:42;6.40;;;1.37;;
8327;SDS011;4201;48.754;8.864;2022-09-09T14:54:09;2.80;;;0.90;;
8327;SDS011;4201;48.754;8.864;2022-09-09T14:56:35;3.30;;;1.27;;
8327;SDS011;4201;48.754;8.864;2022-09-09T14:59:03;5.07;;;1.37;;
8327;SDS011;4201;48.754;8.864;2022-09-09T15:01:29;2.00;;;1.00;;
8327;SDS011;4201;48.754;8.864;2022-09-09T15:03:57;3.03;;;0.80;;
8327;SDS011;4201;48.754;8.864;2022-09-09T15:06:25;2.70;;;1.00;;
8327;SDS011;4201;48.754;8.864;2022-09-09T15:08:52;2.83;;;1.10;;
8327;SDS011;4201;48.754;8.864;2022-09-09T15:11:19;4.40;;;1.20;;
8327;SDS011;4201;48.754;8.864;2022-09-09T15:13:46;4.10;;;1.37;;
8327;SDS011;4201;48.754;8.864;2022-09-09T15:16:13;3.50;;;0.93;;
8327;SDS011;4201;48.754;8.864;2022-09-09T15:18:40;3.50;;;1.33;;
8327;SDS011;4201;48.754;8.864;2022-09-09T15:21:08;4.53;;;1.10;;
8327;SDS011;4201;48.754;8.864;2022-09-09T15:23:36;3.60;;;1.20;;
8327;SDS011;4201;48.754;8.864;2022-09-09T15:26:02;5.40;;;1.53;;
8327;SDS011;4201;48.754;8.864;2022-09-09T15:28:29;3.70;;;1.20;;